TimeMDT,TemperatureF,Dew PointF,Humidity,Sea Level PressureIn,VisibilityMPH,Wind Direction,Wind SpeedMPH,Gust SpeedMPH,PrecipitationIn,Events,Conditions,WindDirDegrees,DateUTC
12:53 AM,30.0,18.0,61,30.13,10.0,West,9.2,-,N/A,,Clear,270,2012-10-31 06:53:00
1:53 AM,30.0,18.0,61,30.12,10.0,West,9.2,-,N/A,,Clear,270,2012-10-31 07:53:00
2:53 AM,28.0,17.1,63,30.13,10.0,West,8.1,-,N/A,,Clear,270,2012-10-31 08:53:00
3:53 AM,28.0,18.0,66,30.12,10.0,West,8.1,-,N/A,,Clear,270,2012-10-31 09:53:00
4:53 AM,27.0,17.1,66,30.12,10.0,West,6.9,-,N/A,,Clear,270,2012-10-31 10:53:00
5:53 AM,27.0,18.0,69,30.12,10.0,West,8.1,-,N/A,,Clear,270,2012-10-31 11:53:00
6:53 AM,27.0,18.0,69,30.19,10.0,West,9.2,-,N/A,,Clear,270,2012-10-31 12:53:00
7:53 AM,26.1,17.1,69,30.19,10.0,West,8.1,-,N/A,,Clear,270,2012-10-31 13:53:00
8:53 AM,33.1,19.0,56,30.22,10.0,West,8.1,-,N/A,,Clear,270,2012-10-31 14:53:00
9:53 AM,44.1,21.0,40,30.19,10.0,WNW,3.5,-,N/A,,Clear,300,2012-10-31 15:53:00
10:53 AM,52.0,19.9,28,30.18,10.0,Calm,Calm,-,N/A,,Clear,0,2012-10-31 16:53:00
11:53 AM,57.9,19.0,22,30.14,10.0,SE,10.4,-,N/A,,Clear,140,2012-10-31 17:53:00
1:53 PM,60.1,19.0,20,30.08,10.0,SE,13.8,20.7,N/A,,Clear,140,2012-10-31 19:53:00
2:53 PM,61.0,19.0,20,30.06,10.0,SE,12.7,-,N/A,,Clear,140,2012-10-31 20:53:00
3:53 PM,61.0,18.0,19,30.04,10.0,South,11.5,-,N/A,,Clear,180,2012-10-31 21:53:00
4:53 PM,60.1,17.1,19,30.04,10.0,SSE,11.5,-,N/A,,Clear,160,2012-10-31 22:53:00
5:53 PM,57.0,18.0,22,30.06,10.0,SSE,11.5,-,N/A,,Clear,150,2012-10-31 23:53:00
6:53 PM,50.0,18.0,28,30.09,10.0,SSE,10.4,-,N/A,,Clear,150,2012-11-01 00:53:00
7:53 PM,39.0,17.1,41,30.17,10.0,SW,4.6,-,N/A,,Clear,220,2012-11-01 01:53:00
8:53 PM,34.0,17.1,50,30.17,10.0,Calm,Calm,-,N/A,,Clear,0,2012-11-01 02:53:00
9:53 PM,30.0,16.0,56,30.13,10.0,West,5.8,-,N/A,,Clear,270,2012-11-01 03:53:00
10:53 PM,28.9,16.0,58,30.10,10.0,WSW,4.6,-,N/A,,Clear,240,2012-11-01 04:53:00
11:53 PM,28.0,16.0,61,30.08,10.0,West,3.5,-,N/A,,Clear,260,2012-11-01 05:53:00